Time;durP1;ratioP1;P1;durP2;ratioP2;P2;SDS_P1;SDS_P2;PMS_P1;PMS_P2;Temp;Humidity;BMP_temperature;BMP_pressure;BME280_temperature;BME280_humidity;BME280_pressure;Samples;Min_cycle;Max_cycle;Signal;HPM_P1;HPM_P2
2021/03/22 00:00:34;;;;;;;5.65;3.03;;;8.40;68.10;;;;;;2522350;55;20951;-66
2021/03/22 00:03:01;;;;;;;6.40;3.50;;;8.30;68.00;;;;;;2521784;55;20954;-66
2021/03/22 00:05:29;;;;;;;6.55;3.80;;;8.30;68.00;;;;;;2287525;56;20935;-65
2021/03/22 00:07:56;;;;;;;5.72;3.20;;;8.30;68.10;;;;;;2510225;55;21808;-65
2021/03/22 00:10:28;;;;;;;7.95;4.03;;;8.30;68.10;;;;;;2276369;56;21034;-66
2021/03/22 00:12:56;;;;;;;8.82;3.97;;;8.30;68.10;;;;;;2478952;55;21446;-66
2021/03/22 00:15:29;;;;;;;5.75;3.47;;;8.30;68.10;;;;;;2258051;56;20962;-66
2021/03/22 00:17:56;;;;;;;5.70;3.25;;;8.30;68.20;;;;;;2262279;56;20974;-65
2021/03/22 00:20:23;;;;;;;7.03;3.22;;;8.30;68.30;;;;;;2265191;56;20951;-65
2021/03/22 00:22:50;;;;;;;7.03;3.47;;;8.30;68.20;;;;;;2498025;55;21451;-64
2021/03/22 00:25:16;;;;;;;6.32;3.75;;;8.30;68.20;;;;;;2269847;56;20976;-65
2021/03/22 00:27:43;;;;;;;6.05;3.28;;;8.30;68.20;;;;;;2496726;55;20989;-65
2021/03/22 00:30:10;;;;;;;5.60;3.42;;;8.30;68.20;;;;;;2280409;56;21043;-66
2021/03/22 00:32:37;;;;;;;7.15;3.40;;;8.30;68.20;;;;;;2276674;55;21360;-65
2021/03/22 00:35:04;;;;;;;5.72;3.50;;;8.30;68.10;;;;;;2271681;56;20939;-65
2021/03/22 00:37:30;;;;;;;8.57;4.07;;;8.30;68.10;;;;;;2522412;55;21137;-71
2021/03/22 00:39:57;;;;;;;5.57;3.20;;;8.30;68.10;;;;;;2288023;56;21275;-65
2021/03/22 00:42:23;;;;;;;7.22;3.78;;;8.20;67.90;;;;;;2522963;55;20967;-66
2021/03/22 00:44:49;;;;;;;5.97;3.37;;;8.20;67.90;;;;;;2289443;56;21018;-65
2021/03/22 00:47:16;;;;;;;8.23;3.22;;;8.20;67.90;;;;;;2500336;55;21014;-66
2021/03/22 00:49:43;;;;;;;6.53;3.70;;;8.20;67.80;;;;;;2287561;56;20966;-64
2021/03/22 00:52:11;;;;;;;7.47;3.78;;;8.20;67.80;;;;;;2522861;55;21479;-64
2021/03/22 00:54:42;;;;;;;6.80;3.70;;;8.10;67.70;;;;;;2502975;55;21031;-65
2021/03/22 00:57:09;;;;;;;7.10;3.33;;;8.10;67.70;;;;;;2287039;55;20982;-66
2021/03/22 00:59:35;;;;;;;7.93;3.75;;;8.10;67.80;;;;;;2288355;56;21447;-66
2021/03/22 01:02:04;;;;;;;6.47;3.28;;;8.10;67.80;;;;;;2495994;55;21016;-66
2021/03/22 01:04:30;;;;;;;9.80;4.28;;;8.10;67.80;;;;;;2521993;55;20903;-65
2021/03/22 01:06:56;;;;;;;6.37;3.65;;;8.10;67.80;;;;;;2288272;56;20975;-66
2021/03/22 01:09:23;;;;;;;8.07;4.07;;;8.00;67.70;;;;;;2288321;56;21015;-64
2021/03/22 01:11:49;;;;;;;7.07;3.80;;;8.00;67.70;;;;;;2288159;56;20951;-66
2021/03/22 01:14:15;;;;;;;7.57;3.97;;;8.00;67.70;;;;;;2288392;56;21047;-65
2021/03/22 01:16:44;;;;;;;7.82;4.05;;;8.00;67.70;;;;;;2288376;56;20987;-66
2021/03/22 01:19:13;;;;;;;7.30;3.65;;;8.00;67.60;;;;;;2522308;55;21090;-64
2021/03/22 01:21:47;;;;;;;8.80;3.80;;;7.90;67.60;;;;;;2515576;55;20999;-65
2021/03/22 01:24:15;;;;;;;7.80;3.87;;;7.90;67.50;;;;;;2272934;56;21023;-66
2021/03/22 01:26:41;;;;;;;6.90;4.03;;;7.90;67.60;;;;;;2522716;55;21764;-66
2021/03/22 01:29:15;;;;;;;5.97;3.55;;;7.90;67.60;;;;;;2288282;56;21078;-65
2021/03/22 01:31:42;;;;;;;8.00;3.47;;;7.90;67.30;;;;;;2501949;55;21038;-67
2021/03/22 01:34:10;;;;;;;7.93;4.03;;;7.80;67.30;;;;;;2270849;56;20946;-65
2021/03/22 01:36:36;;;;;;;6.93;3.65;;;7.80;67.30;;;;;;2282995;56;20991;-66
2021/03/22 01:39:18;;;;;;;7.50;3.53;;;7.80;67.30;;;;;;2517688;55;21091;-64
2021/03/22 01:42:15;;;;;;;7.00;3.60;;;7.70;66.70;;;;;;2273459;56;21792;-66
2021/03/22 01:44:45;;;;;;;5.78;3.17;;;7.70;66.30;;;;;;2288228;56;20958;-65
2021/03/22 01:47:19;;;;;;;5.75;3.12;;;7.60;66.60;;;;;;2288298;56;21035;-65
2021/03/22 01:50:01;;;;;;;7.18;3.50;;;7.60;66.40;;;;;;2285236;56;20970;-65
2021/03/22 01:52:27;;;;;;;7.20;3.15;;;7.60;66.40;;;;;;2288881;56;21018;-66
2021/03/22 01:54:54;;;;;;;5.65;3.12;;;7.50;66.50;;;;;;2275369;56;21151;-66
2021/03/22 01:57:55;;;;;;;6.60;3.35;;;7.40;66.40;;;;;;2518489;55;20999;-65
2021/03/22 02:00:29;;;;;;;6.37;3.10;;;7.40;66.30;;;;;;2276149;56;21551;-65
2021/03/22 02:03:10;;;;;;;5.12;2.53;;;7.30;66.00;;;;;;2286404;56;20959;-65
2021/03/22 02:05:38;;;;;;;7.10;3.28;;;7.30;65.80;;;;;;2287706;56;21530;-64
2021/03/22 02:08:31;;;;;;;6.93;3.58;;;7.10;65.90;;;;;;2522681;55;20994;-65
2021/03/22 02:10:57;;;;;;;;;;;7.10;65.40;;;;;;2291753;56;21551;-65
2021/03/22 02:13:28;;;;;;;5.90;3.12;;;7.00;65.00;;;;;;2284069;56;20069;-64
2021/03/22 02:16:16;;;;;;;8.25;3.28;;;7.00;65.60;;;;;;2278587;56;21022;-63
2021/03/22 02:19:51;;;;;;;7.65;3.00;;;6.90;65.60;;;;;;2508867;55;21030;-65
2021/03/22 02:27:41;;;;;;;8.73;3.45;;;6.70;65.00;;;;;;2288359;56;21491;-66
2021/03/22 02:31:59;;;;;;;7.72;2.50;;;6.70;65.00;;;;;;2522661;55;20962;-64
2021/03/22 02:34:47;;;;;;;10.63;3.42;;;6.60;65.40;;;;;;2522053;55;20969;-64
2021/03/22 02:37:28;;;;;;;11.57;4.78;;;6.40;65.80;;;;;;2288279;56;20955;-64
2021/03/22 02:40:15;;;;;;;15.38;4.68;;;6.40;66.00;;;;;;2287751;56;21484;-64
2021/03/22 02:42:45;;;;;;;10.65;4.35;;;6.30;65.90;;;;;;2288444;56;20959;-65
2021/03/22 02:45:17;;;;;;;13.10;4.65;;;6.30;66.30;;;;;;2257356;55;20982;-66
2021/03/22 02:47:43;;;;;;;9.45;4.37;;;6.20;66.40;;;;;;2287525;55;20990;-65
2021/03/22 02:50:12;;;;;;;11.27;3.85;;;6.20;66.60;;;;;;2521492;55;20998;-65
2021/03/22 02:53:31;;;;;;;14.87;4.70;;;6.10;66.80;;;;;;2496214;55;21812;-64
2021/03/22 02:56:34;;;;;;;10.70;3.95;;;6.10;66.40;;;;;;2273409;55;21547;-66
2021/03/22 02:59:05;;;;;;;;;;;6.10;66.70;;;;;;2291521;56;21026;-65
2021/03/22 03:01:43;;;;;;;6.18;3.08;;;6.10;66.30;;;;;;2288175;56;20104;-66
2021/03/22 03:04:14;;;;;;;8.10;3.15;;;6.10;67.20;;;;;;2496089;55;20999;-67
2021/03/22 03:06:50;;;;;;;9.95;3.20;;;6.10;67.60;;;;;;2269231;56;20939;-65
2021/03/22 03:09:19;;;;;;;8.25;3.30;;;6.10;67.70;;;;;;2507879;55;21006;-64
2021/03/22 03:11:46;;;;;;;7.00;2.90;;;6.10;68.00;;;;;;2279843;56;21113;-65
2021/03/22 03:14:12;;;;;;;8.07;3.25;;;6.10;68.10;;;;;;2280125;55;21042;-64
2021/03/22 03:16:40;;;;;;;7.93;3.33;;;6.10;68.20;;;;;;2264378;56;21042;-67
2021/03/22 03:19:07;;;;;;;10.32;3.62;;;6.10;68.30;;;;;;2269910;56;20987;-65
2021/03/22 03:21:34;;;;;;;7.68;3.50;;;6.20;68.50;;;;;;2288010;56;21985;-65
2021/03/22 03:24:01;;;;;;;9.23;3.70;;;6.20;68.50;;;;;;2276402;55;21454;-66
2021/03/22 03:26:29;;;;;;;7.75;3.20;;;6.20;69.30;;;;;;2515759;55;20975;-65
2021/03/22 03:28:55;;;;;;;8.73;3.35;;;6.30;68.70;;;;;;2498791;55;21010;-64
2021/03/22 03:31:22;;;;;;;10.60;3.53;;;6.30;68.70;;;;;;2280233;55;21612;-64
2021/03/22 03:33:48;;;;;;;7.12;3.37;;;6.30;68.70;;;;;;2510348;55;21018;-66
2021/03/22 03:36:15;;;;;;;8.23;3.60;;;6.30;68.70;;;;;;2273975;56;21141;-66
2021/03/22 03:38:44;;;;;;;7.05;3.17;;;6.40;68.80;;;;;;2280321;56;21050;-65
2021/03/22 03:41:10;;;;;;;9.95;3.80;;;6.40;68.80;;;;;;2287683;56;21818;-67
2021/03/22 03:43:36;;;;;;;9.57;3.95;;;6.40;68.80;;;;;;2522568;55;20994;-65
2021/03/22 03:46:03;;;;;;;8.63;3.25;;;6.40;68.70;;;;;;2287969;56;21794;-65
2021/03/22 03:48:29;;;;;;;8.80;3.25;;;6.50;68.80;;;;;;2496673;55;21514;-65
2021/03/22 03:50:57;;;;;;;6.30;3.15;;;6.50;68.80;;;;;;2286935;56;20943;-64
2021/03/22 03:53:23;;;;;;;9.60;4.22;;;6.50;68.70;;;;;;2287971;56;20966;-65
2021/03/22 03:55:49;;;;;;;10.07;3.58;;;6.50;68.70;;;;;;2288433;56;21022;-65
2021/03/22 03:58:16;;;;;;;11.05;3.83;;;6.50;68.70;;;;;;2273744;55;20970;-66
2021/03/22 04:00:46;;;;;;;7.82;3.45;;;6.50;68.70;;;;;;2276963;56;21054;-65
2021/03/22 04:03:54;;;;;;;7.60;3.62;;;6.50;68.70;;;;;;2281703;55;21395;-66
2021/03/22 04:06:22;;;;;;;7.37;3.42;;;6.50;68.00;;;;;;2271183;56;20990;-66
2021/03/22 04:08:52;;;;;;;9.32;3.05;;;6.60;68.80;;;;;;2275700;56;21022;-65
2021/03/22 04:11:30;;;;;;;6.70;3.10;;;6.60;68.90;;;;;;2264771;56;21844;-64
2021/03/22 04:13:56;;;;;;;7.10;3.30;;;6.60;68.80;;;;;;2269419;56;20966;-66
2021/03/22 04:16:23;;;;;;;8.88;3.62;;;6.60;68.90;;;;;;2272669;56;20987;-67
2021/03/22 04:18:50;;;;;;;12.07;3.28;;;6.60;68.90;;;;;;2287012;56;20959;-65
2021/03/22 04:21:28;;;;;;;8.77;3.30;;;6.70;69.00;;;;;;2257206;56;21046;-64
2021/03/22 04:23:55;;;;;;;10.48;3.58;;;6.70;69.00;;;;;;2521995;55;21091;-66
2021/03/22 04:26:22;;;;;;;8.07;3.28;;;6.70;68.90;;;;;;2270497;56;21006;-66
2021/03/22 04:28:48;;;;;;;8.35;3.70;;;6.70;68.90;;;;;;2288763;56;20958;-65
2021/03/22 04:31:15;;;;;;;10.50;3.58;;;6.70;68.90;;;;;;2275802;56;20998;-64
2021/03/22 04:33:42;;;;;;;9.15;4.18;;;6.70;68.80;;;;;;2510466;55;21507;-65
2021/03/22 04:36:10;;;;;;;8.52;3.67;;;6.70;68.80;;;;;;2274895;56;21055;-65
2021/03/22 04:38:36;;;;;;;11.25;3.70;;;6.70;68.70;;;;;;2288155;56;20987;-66
2021/03/22 04:41:03;;;;;;;10.32;3.92;;;6.70;68.70;;;;;;2287871;56;21010;-66
2021/03/22 04:43:31;;;;;;;9.20;3.97;;;6.70;68.70;;;;;;2495067;55;21001;-64
2021/03/22 04:45:57;;;;;;;6.72;2.97;;;6.70;68.70;;;;;;2280230;56;20971;-64
2021/03/22 04:48:23;;;;;;;7.43;3.05;;;6.70;68.80;;;;;;2277292;56;20963;-66
2021/03/22 04:50:50;;;;;;;9.63;3.80;;;6.70;68.70;;;;;;2287089;56;21010;-66
2021/03/22 04:53:16;;;;;;;8.13;4.20;;;6.70;68.70;;;;;;2287473;56;21097;-66
2021/03/22 04:55:43;;;;;;;8.80;3.92;;;6.70;68.70;;;;;;2276811;56;21557;-66
2021/03/22 04:58:10;;;;;;;11.43;3.92;;;6.70;68.70;;;;;;2279400;56;21443;-64
2021/03/22 05:00:41;;;;;;;11.32;4.28;;;6.70;68.70;;;;;;2276520;56;21022;-66
2021/03/22 05:03:09;;;;;;;11.05;4.05;;;6.70;68.70;;;;;;2508913;55;20989;-65
2021/03/22 05:05:36;;;;;;;7.35;3.22;;;6.80;68.80;;;;;;2288726;56;21026;-66
2021/03/22 05:08:04;;;;;;;7.45;3.28;;;6.80;68.90;;;;;;2277662;55;20966;-65
2021/03/22 05:10:36;;;;;;;10.23;3.92;;;6.80;68.90;;;;;;2275277;56;21312;-66
2021/03/22 05:13:03;;;;;;;15.75;3.12;;;6.80;68.90;;;;;;2287405;56;20982;-65
2021/03/22 05:15:30;;;;;;;11.10;3.33;;;6.80;68.90;;;;;;2288556;56;20946;-65
2021/03/22 05:17:56;;;;;;;10.90;4.18;;;6.80;68.90;;;;;;2496896;55;20954;-66
2021/03/22 05:20:32;;;;;;;6.87;3.25;;;6.80;68.80;;;;;;2286686;56;20958;-64
2021/03/22 05:23:04;;;;;;;7.55;3.08;;;6.80;68.70;;;;;;2516177;55;21482;-65
2021/03/22 05:25:31;;;;;;;8.18;3.30;;;6.80;68.70;;;;;;2503009;55;21514;-66
2021/03/22 05:28:00;;;;;;;9.13;3.70;;;6.80;68.70;;;;;;2496181;55;21400;-67
2021/03/22 05:30:27;;;;;;;8.63;3.58;;;6.80;68.70;;;;;;2522248;55;20999;-65
2021/03/22 05:33:01;;;;;;;8.55;3.37;;;6.80;68.70;;;;;;2521694;55;20954;-65
2021/03/22 05:35:28;;;;;;;8.80;3.70;;;6.80;68.60;;;;;;2263281;55;21014;-65
2021/03/22 05:37:55;;;;;;;8.95;3.40;;;6.80;68.70;;;;;;2496091;55;21049;-66
2021/03/22 05:40:26;;;;;;;7.45;3.22;;;6.80;68.70;;;;;;2275579;56;21037;-66
2021/03/22 05:44:52;;;;;;;11.43;4.05;;;6.80;68.70;;;;;;2272572;55;21059;-65
2021/03/22 05:47:23;;;;;;;9.90;4.37;;;6.80;68.70;;;;;;2287815;55;20997;-66
2021/03/22 05:51:01;;;;;;;10.50;3.37;;;6.80;68.80;;;;;;2495796;55;21396;-66
2021/03/22 05:53:35;;;;;;;7.28;3.42;;;6.90;68.40;;;;;;2286860;56;21038;-65
2021/03/22 05:56:05;;;;;;;7.05;3.35;;;6.90;69.10;;;;;;2521761;55;20963;-67
2021/03/22 06:02:41;;;;;;;11.20;3.97;;;6.90;69.30;;;;;;2268104;56;20991;-65
2021/03/22 06:05:32;;;;;;;6.65;3.45;;;6.90;68.40;;;;;;2288625;56;21146;-64
2021/03/22 06:09:33;;;;;;;10.95;4.30;;;6.90;68.70;;;;;;2270479;55;21069;-65
2021/03/22 06:13:01;;;;;;;8.38;3.60;;;7.00;69.30;;;;;;2286615;56;20995;-66
2021/03/22 06:15:33;;;;;;;9.18;3.92;;;7.00;68.50;;;;;;2287585;56;20947;-66
2021/03/22 06:18:39;;;;;;;10.57;4.65;;;7.00;69.30;;;;;;2496690;55;20943;-66
2021/03/22 06:21:13;;;;;;;9.75;4.12;;;7.00;69.40;;;;;;2287125;56;21440;-66
2021/03/22 06:23:44;;;;;;;11.50;4.25;;;7.00;69.40;;;;;;2265174;55;21050;-65
2021/03/22 06:27:35;;;;;;;11.90;4.47;;;7.00;69.60;;;;;;2285101;56;21006;-65
2021/03/22 06:30:01;;;;;;;11.75;5.12;;;7.10;68.90;;;;;;2521100;55;21022;-65
2021/03/22 06:32:29;;;;;;;14.75;5.55;;;7.10;69.80;;;;;;2504969;55;21002;-66
2021/03/22 06:35:00;;;;;;;13.07;5.15;;;7.20;69.90;;;;;;2512399;55;20998;-66
2021/03/22 06:37:28;;;;;;;14.93;4.87;;;7.20;69.90;;;;;;2288467;56;20974;-66
2021/03/22 06:40:14;;;;;;;10.95;5.25;;;7.20;70.00;;;;;;2287724;56;20962;-68
2021/03/22 06:42:41;;;;;;;12.60;4.60;;;7.20;69.80;;;;;;2288532;56;21767;-64
2021/03/22 06:47:01;;;;;;;9.95;4.00;;;7.20;70.00;;;;;;2522458;55;20923;-65
2021/03/22 06:49:36;;;;;;;10.07;4.03;;;7.30;69.70;;;;;;2522284;55;20947;-66
2021/03/22 06:52:07;;;;;;;12.20;4.10;;;7.40;69.90;;;;;;2471613;55;21120;-67
2021/03/22 06:54:41;;;;;;;14.93;5.35;;;7.40;70.10;;;;;;2290098;56;20972;-67
2021/03/22 06:57:49;;;;;;;9.02;4.45;;;7.50;70.10;;;;;;2287488;56;21030;-64
2021/03/22 07:00:18;;;;;;;10.93;3.78;;;7.50;69.40;;;;;;2273131;55;21489;-65
2021/03/22 07:02:58;;;;;;;9.90;3.92;;;7.60;70.20;;;;;;2287796;56;20994;-66
2021/03/22 07:05:35;;;;;;;10.93;4.20;;;7.60;70.00;;;;;;2287839;56;21006;-67
2021/03/22 07:08:11;;;;;;;12.18;4.70;;;7.60;70.00;;;;;;2276909;56;21490;-67
2021/03/22 07:11:04;;;;;;;11.63;4.65;;;7.70;70.00;;;;;;2288654;55;21568;-65
2021/03/22 07:13:31;;;;;;;7.87;3.90;;;7.70;70.00;;;;;;2288701;56;20943;-66
2021/03/22 07:16:17;;;;;;;10.85;4.07;;;7.70;70.00;;;;;;2287836;56;21477;-66
2021/03/22 07:19:06;;;;;;;11.30;4.45;;;7.80;69.70;;;;;;2521710;55;21255;-67
2021/03/22 07:21:33;;;;;;;11.38;4.30;;;7.80;70.10;;;;;;2280041;56;21002;-66
2021/03/22 07:25:51;;;;;;;11.10;4.10;;;7.80;70.10;;;;;;2489545;55;21051;-65
2021/03/22 07:32:13;;;;;;;10.13;3.78;;;7.90;69.60;;;;;;2268905;56;20983;-65
2021/03/22 07:36:22;;;;;;;11.45;3.50;;;8.00;68.80;;;;;;2272364;56;20950;-66
2021/03/22 07:39:06;;;;;;;8.27;3.08;;;8.10;68.70;;;;;;2290949;56;21006;-66
2021/03/22 07:42:16;;;;;;;8.85;4.32;;;8.10;69.60;;;;;;2287304;56;20955;-66
2021/03/22 07:46:42;;;;;;;9.50;3.47;;;8.10;69.30;;;;;;2276008;56;21135;-66
2021/03/22 07:53:29;;;;;;;9.20;4.28;;;8.20;68.70;;;;;;2287571;56;21090;-67
2021/03/22 07:55:56;;;;;;;11.45;3.92;;;8.20;69.00;;;;;;2267432;56;20970;-67
2021/03/22 07:59:00;;;;;;;9.75;3.55;;;8.30;70.10;;;;;;2499685;55;21145;-66
2021/03/22 08:04:10;;;;;;;11.57;4.47;;;8.30;69.60;;;;;;2287761;56;21015;-67
2021/03/22 08:07:08;;;;;;;15.45;4.47;;;8.40;70.10;;;;;;2521372;55;21035;-66
2021/03/22 08:11:11;;;;;;;9.60;3.80;;;8.50;70.00;;;;;;2522008;55;20990;-64
2021/03/22 08:13:48;;;;;;;11.93;4.03;;;8.60;69.00;;;;;;2521637;55;20951;-65
2021/03/22 08:17:01;;;;;;;11.73;4.62;;;8.60;70.20;;;;;;2287997;56;21530;-65
2021/03/22 08:19:32;;;;;;;12.17;4.07;;;8.70;69.60;;;;;;2287570;56;21011;-65
2021/03/22 08:22:16;;;;;;;9.73;4.10;;;8.70;70.30;;;;;;2268653;56;20939;-65
2021/03/22 08:25:11;;;;;;;12.85;4.20;;;8.80;70.10;;;;;;2519903;55;20954;-67
2021/03/22 08:27:39;;;;;;;10.40;4.40;;;8.80;70.10;;;;;;2269770;56;21689;-68
2021/03/22 08:30:28;;;;;;;14.35;5.32;;;8.90;70.60;;;;;;2274013;55;21992;-67
2021/03/22 08:33:01;;;;;;;13.48;3.85;;;8.90;69.90;;;;;;2495548;55;21054;-66
2021/03/22 08:35:36;;;;;;;13.20;4.18;;;9.00;70.20;;;;;;2276141;56;20931;-66
2021/03/22 08:38:11;;;;;;;11.98;4.35;;;9.00;69.90;;;;;;2516327;55;20998;-65
2021/03/22 08:40:49;;;;;;;14.60;4.78;;;9.10;70.10;;;;;;2502961;55;21105;-67
2021/03/22 08:43:50;;;;;;;14.23;4.70;;;9.10;69.90;;;;;;2286719;56;21015;-67
2021/03/22 08:49:27;;;;;;;11.35;3.55;;;9.20;69.60;;;;;;2287205;56;21502;-64
2021/03/22 08:51:55;;;;;;;11.82;3.28;;;9.30;68.80;;;;;;2287329;56;21073;-66
2021/03/22 08:54:27;;;;;;;13.43;3.65;;;9.40;70.50;;;;;;2277280;56;21020;-66
2021/03/22 08:57:24;;;;;;;14.90;4.47;;;9.40;70.10;;;;;;2269659;56;20986;-68
2021/03/22 09:00:16;;;;;;;12.30;3.90;;;9.50;69.20;;;;;;2269598;55;20969;-66
2021/03/22 09:03:31;;;;;;;10.23;3.33;;;9.50;69.60;;;;;;2283501;56;20970;-66
2021/03/22 09:06:16;;;;;;;11.75;4.10;;;9.60;68.90;;;;;;2281272;56;20939;-67
2021/03/22 09:09:03;;;;;;;9.80;3.45;;;9.60;69.40;;;;;;2269262;55;21037;-66
2021/03/22 09:11:45;;;;;;;10.23;3.53;;;9.70;69.20;;;;;;2522140;55;21451;-65
2021/03/22 09:14:42;;;;;;;12.32;4.00;;;9.70;69.40;;;;;;2274448;56;21042;-67
2021/03/22 09:18:58;;;;;;;12.65;4.10;;;9.80;68.70;;;;;;2287845;56;20927;-65
2021/03/22 09:21:24;;;;;;;9.75;3.85;;;9.80;67.90;;;;;;2288129;55;21034;-65
2021/03/22 09:23:51;;;;;;;13.15;4.10;;;9.80;69.60;;;;;;2268594;56;21423;-66
2021/03/22 09:26:18;;;;;;;8.50;3.60;;;9.80;69.60;;;;;;2288300;56;21546;-67
2021/03/22 09:28:46;;;;;;;9.52;3.22;;;9.90;69.70;;;;;;2495877;55;20985;-66
2021/03/22 09:31:36;;;;;;;9.50;3.12;;;9.90;69.70;;;;;;2278583;56;20969;-66
2021/03/22 09:34:30;;;;;;;9.93;3.35;;;10.00;67.50;;;;;;2487926;55;21039;-64
2021/03/22 09:36:56;;;;;;;6.40;2.70;;;10.00;68.30;;;;;;2288642;55;20991;-68
2021/03/22 09:39:46;;;;;;;9.27;3.10;;;10.00;68.10;;;;;;2499826;55;20955;-65
2021/03/22 09:42:23;;;;;;;12.73;3.20;;;10.00;67.00;;;;;;2287194;56;21030;-68
2021/03/22 09:45:23;;;;;;;6.87;2.62;;;10.10;67.70;;;;;;2288919;56;21054;-65
2021/03/22 09:48:36;;;;;;;9.63;2.53;;;10.10;66.60;;;;;;2274173;56;21537;-65
2021/03/22 09:51:23;;;;;;;;;;;10.10;66.40;;;;;;2284929;56;21014;-65
2021/03/22 09:53:57;;;;;;;8.38;1.92;;;10.10;66.40;;;;;;2512125;55;20069;-65
2021/03/22 09:56:40;;;;;;;9.40;2.22;;;10.20;68.00;;;;;;2287576;56;20986;-66
2021/03/22 10:01:44;;;;;;;7.12;1.98;;;10.20;68.10;;;;;;2283391;56;21068;-67
2021/03/22 10:04:33;;;;;;;8.30;2.17;;;10.40;66.80;;;;;;2284565;56;21003;-65
2021/03/22 10:07:25;;;;;;;6.75;2.15;;;10.40;67.70;;;;;;2507329;55;21070;-66
2021/03/22 10:10:19;;;;;;;6.28;2.00;;;10.40;68.00;;;;;;2287506;56;21035;-67
2021/03/22 10:12:54;;;;;;;5.70;1.65;;;10.50;68.20;;;;;;2501216;55;21006;-66
2021/03/22 10:15:30;;;;;;;6.10;1.92;;;10.50;68.40;;;;;;2275891;55;20954;-66
2021/03/22 10:18:10;;;;;;;7.82;1.83;;;10.60;68.00;;;;;;2280042;56;21031;-66
2021/03/22 10:20:41;;;;;;;7.18;1.73;;;10.60;67.60;;;;;;2269368;56;20995;-66
2021/03/22 10:23:39;;;;;;;9.05;2.30;;;10.60;68.00;;;;;;2484147;55;20971;-68
2021/03/22 10:26:25;;;;;;;12.43;2.35;;;10.70;67.10;;;;;;2284649;55;21021;-66
2021/03/22 10:29:24;;;;;;;5.93;1.80;;;10.70;67.00;;;;;;2500457;55;20986;-68
2021/03/22 10:38:39;;;;;;;9.60;2.10;;;10.70;67.30;;;;;;2287360;56;20958;-67
2021/03/22 10:41:22;;;;;;;10.82;2.42;;;11.00;67.50;;;;;;2495082;55;20962;-65
2021/03/22 10:43:56;;;;;;;8.60;1.77;;;11.00;68.80;;;;;;2287404;56;20983;-67
2021/03/22 10:46:25;;;;;;;10.00;2.37;;;11.00;68.70;;;;;;2287089;56;21054;-67
2021/03/22 10:49:25;;;;;;;8.13;2.58;;;11.10;68.90;;;;;;2287183;56;21130;-65
2021/03/22 10:51:52;;;;;;;10.43;2.28;;;11.20;67.50;;;;;;2266052;55;21054;-66
2021/03/22 10:54:20;;;;;;;9.80;2.40;;;11.30;68.90;;;;;;2284164;56;20935;-66
2021/03/22 10:56:54;;;;;;;7.82;2.08;;;11.30;68.60;;;;;;2521288;55;21010;-65
2021/03/22 10:59:31;;;;;;;10.23;2.62;;;11.40;68.30;;;;;;2496253;55;21038;-68
2021/03/22 11:02:00;;;;;;;10.20;2.58;;;11.50;68.00;;;;;;2264308;55;21047;-67
2021/03/22 11:04:33;;;;;;;7.35;2.10;;;11.50;68.10;;;;;;2287749;56;20987;-66
2021/03/22 11:06:59;;;;;;;7.18;2.22;;;11.50;67.60;;;;;;2521992;55;21134;-67
2021/03/22 11:09:29;;;;;;;8.82;2.25;;;11.60;68.00;;;;;;2269256;55;21002;-67
2021/03/22 11:11:56;;;;;;;8.30;2.45;;;11.60;67.50;;;;;;2521147;55;21563;-66
2021/03/22 11:14:23;;;;;;;6.60;2.40;;;11.60;67.00;;;;;;2288159;56;21128;-65
2021/03/22 11:16:50;;;;;;;6.30;2.28;;;11.60;66.80;;;;;;2521007;55;20958;-65
2021/03/22 11:19:26;;;;;;;8.13;2.75;;;11.60;66.60;;;;;;2284930;56;21510;-66
2021/03/22 11:22:15;;;;;;;7.43;1.98;;;11.60;66.00;;;;;;2276878;55;21887;-68
2021/03/22 11:24:43;;;;;;;8.77;2.12;;;11.60;65.60;;;;;;2290812;56;21094;-67
2021/03/22 11:27:11;;;;;;;8.57;2.10;;;11.60;66.60;;;;;;2521855;55;21711;-67
2021/03/22 11:30:01;;;;;;;8.15;2.10;;;11.60;66.50;;;;;;2269593;56;20962;-66
2021/03/22 11:32:32;;;;;;;7.78;2.20;;;11.60;65.40;;;;;;2521966;55;21007;-67
2021/03/22 11:34:59;;;;;;;7.72;1.87;;;11.60;66.20;;;;;;2287517;56;20958;-65
2021/03/22 11:37:30;;;;;;;6.32;2.15;;;11.60;66.70;;;;;;2494826;55;21014;-65
2021/03/22 11:43:29;;;;;;;6.93;1.90;;;11.60;66.50;;;;;;2287542;56;20957;-67
2021/03/22 11:45:55;;;;;;;5.05;1.62;;;11.70;65.40;;;;;;2286170;56;20994;-66
2021/03/22 11:48:31;;;;;;;6.50;2.17;;;11.70;67.10;;;;;;2287661;56;21002;-66
2021/03/22 11:51:11;;;;;;;7.18;2.42;;;11.70;66.40;;;;;;2521539;55;20979;-66
2021/03/22 11:54:01;;;;;;;5.53;2.17;;;11.80;66.70;;;;;;2268463;56;21007;-66
2021/03/22 11:56:28;;;;;;;6.28;2.10;;;11.80;65.70;;;;;;2521184;55;20971;-65
2021/03/22 12:00:46;;;;;;;6.90;2.30;;;11.80;67.10;;;;;;2286993;56;21727;-66
2021/03/22 12:04:16;;;;;;;7.68;2.08;;;11.90;65.20;;;;;;2503670;55;20974;-67
2021/03/22 12:06:59;;;;;;;6.85;1.90;;;12.00;65.20;;;;;;2494796;55;21016;-66
2021/03/22 12:09:26;;;;;;;4.80;1.58;;;12.00;66.60;;;;;;2521304;55;20966;-65
2021/03/22 12:11:52;;;;;;;9.77;2.35;;;12.10;67.50;;;;;;2287000;56;21006;-67
2021/03/22 12:14:19;;;;;;;7.07;1.75;;;12.10;67.20;;;;;;2287724;56;21042;-66
2021/03/22 12:16:46;;;;;;;6.03;1.67;;;12.10;67.00;;;;;;2287562;56;20943;-66
2021/03/22 12:19:34;;;;;;;8.65;2.53;;;12.20;66.90;;;;;;2495938;55;20975;-67
2021/03/22 12:22:00;;;;;;;5.07;2.08;;;12.20;66.20;;;;;;2287864;56;21733;-69
2021/03/22 12:24:32;;;;;;;4.22;1.58;;;12.20;66.50;;;;;;2523104;55;21800;-68
2021/03/22 12:26:59;;;;;;;7.30;2.12;;;12.20;67.30;;;;;;2521842;55;20987;-67
2021/03/22 12:29:27;;;;;;;8.35;2.22;;;12.30;66.70;;;;;;2287471;56;20955;-67
2021/03/22 12:31:53;;;;;;;7.57;2.17;;;12.30;66.50;;;;;;2289936;56;20990;-66
2021/03/22 12:34:22;;;;;;;6.53;2.12;;;12.30;66.30;;;;;;2498032;55;21018;-67
2021/03/22 12:36:51;;;;;;;9.50;2.20;;;12.30;65.90;;;;;;2284770;55;21547;-65
2021/03/22 12:39:29;;;;;;;7.28;2.55;;;12.30;65.60;;;;;;2271822;56;21309;-66
2021/03/22 12:42:01;;;;;;;6.32;1.65;;;12.30;64.80;;;;;;2287273;56;21019;-66
2021/03/22 12:44:29;;;;;;;4.87;1.90;;;12.30;64.80;;;;;;2286919;56;20935;-66
2021/03/22 12:47:04;;;;;;;6.18;2.10;;;12.20;65.10;;;;;;2268706;55;21034;-68
2021/03/22 12:49:31;;;;;;;4.37;1.60;;;12.20;65.00;;;;;;2499203;55;20977;-66
2021/03/22 12:51:58;;;;;;;7.15;2.67;;;12.10;64.80;;;;;;2510317;55;20971;-66
2021/03/22 12:54:25;;;;;;;9.30;2.47;;;12.10;65.20;;;;;;2497599;55;21154;-67
2021/03/22 12:56:53;;;;;;;7.22;2.90;;;12.10;65.20;;;;;;2502763;55;20987;-67
2021/03/22 12:59:37;;;;;;;7.00;2.37;;;12.10;65.00;;;;;;2278156;56;21087;-67
2021/03/22 13:02:19;;;;;;;6.80;2.30;;;12.10;64.40;;;;;;2284736;56;21488;-66
2021/03/22 13:04:45;;;;;;;6.90;2.58;;;12.10;65.40;;;;;;2287601;56;20999;-65
2021/03/22 13:07:12;;;;;;;8.75;2.30;;;12.10;65.70;;;;;;2522335;55;20943;-66
2021/03/22 13:09:38;;;;;;;9.02;2.35;;;12.10;65.40;;;;;;2287509;56;20966;-67
2021/03/22 13:12:07;;;;;;;6.93;2.45;;;12.00;65.10;;;;;;2287668;56;20975;-67
2021/03/22 13:14:35;;;;;;;9.18;2.92;;;12.00;64.80;;;;;;2269281;56;20933;-66
2021/03/22 13:17:02;;;;;;;5.80;2.10;;;12.00;64.90;;;;;;2499432;55;21470;-66
2021/03/22 13:19:29;;;;;;;6.55;2.37;;;12.00;64.80;;;;;;2281091;56;21054;-65
2021/03/22 13:21:57;;;;;;;5.50;1.98;;;11.90;64.80;;;;;;2274450;56;21520;-65
2021/03/22 13:24:24;;;;;;;6.90;2.12;;;11.90;64.80;;;;;;2285347;56;20996;-66
2021/03/22 13:26:50;;;;;;;5.05;2.03;;;11.90;64.80;;;;;;2520086;55;20930;-66
2021/03/22 13:29:17;;;;;;;6.25;2.25;;;12.00;64.80;;;;;;2267493;56;20955;-65
2021/03/22 13:31:43;;;;;;;6.57;2.30;;;11.80;64.50;;;;;;2266236;56;21073;-67
2021/03/22 13:34:12;;;;;;;5.30;2.22;;;11.80;64.60;;;;;;2266678;55;20935;-66
2021/03/22 13:36:39;;;;;;;6.97;2.10;;;11.70;64.20;;;;;;2286858;56;21931;-66
2021/03/22 13:39:06;;;;;;;5.93;2.40;;;11.70;64.40;;;;;;2287461;56;20939;-68
2021/03/22 13:41:38;;;;;;;5.45;2.00;;;11.70;64.60;;;;;;2522006;55;21073;-68
2021/03/22 13:44:05;;;;;;;4.22;1.90;;;11.60;64.00;;;;;;2522017;55;21006;-67
2021/03/22 13:46:33;;;;;;;6.15;2.25;;;11.60;64.40;;;;;;2496166;55;20930;-66
2021/03/22 13:48:59;;;;;;;8.75;2.37;;;11.60;64.70;;;;;;2521630;55;20947;-67
2021/03/22 13:51:29;;;;;;;7.00;2.03;;;11.50;64.80;;;;;;2522359;55;20975;-66
2021/03/22 13:53:57;;;;;;;8.07;2.17;;;11.60;64.90;;;;;;2288120;56;21759;-65
2021/03/22 13:56:23;;;;;;;6.65;2.10;;;11.50;64.90;;;;;;2285231;56;21066;-66
2021/03/22 13:58:51;;;;;;;7.30;2.85;;;11.50;64.80;;;;;;2276469;55;20994;-67
2021/03/22 14:01:17;;;;;;;7.45;2.53;;;11.50;64.80;;;;;;2264989;56;20995;-67
2021/03/22 14:03:45;;;;;;;5.10;2.50;;;11.50;64.80;;;;;;2279835;56;20998;-68
2021/03/22 14:06:12;;;;;;;7.28;2.20;;;11.50;65.00;;;;;;2280048;55;20986;-65
2021/03/22 14:08:39;;;;;;;7.05;2.05;;;11.50;65.00;;;;;;2507040;55;20959;-65
2021/03/22 14:11:08;;;;;;;8.63;2.60;;;11.50;65.00;;;;;;2264053;56;21516;-67
2021/03/22 14:13:34;;;;;;;4.15;2.00;;;11.50;65.00;;;;;;2288279;55;21787;-66
2021/03/22 14:16:02;;;;;;;4.75;1.95;;;11.50;65.10;;;;;;2514268;55;21829;-68
2021/03/22 14:18:31;;;;;;;5.60;2.30;;;11.50;65.20;;;;;;2271372;55;21154;-67
2021/03/22 14:20:58;;;;;;;5.35;2.28;;;11.50;65.00;;;;;;2255045;56;21049;-65